Hartsel, CO (80449)

12:59 PM MST on February 08, 2016 (GMT -0700)
Antero Junction | | Change Station
CLOSE
Current Station
Personal Weather Station
Location: Hartsel, CO
Elevation: 9420 ft
Nearby Weather Stations

Elev 9420 ft 38.89 °N, 105.90 °W | Updated 4 minutes ago

Partly Cloudy
Partly Cloudy
41.2 °F
Feels Like 41 °F
N
0.0
Wind Variable Wind from WSW
Gusts 14.0 mph

Today
High -- | Low -- °F
--% Chance of Precip.
Yesterday
High -- | Low -- °F
Precip. -- in
Pressure 30.40 in
Visibility 10.0 miles
Clouds Clear
Windchill 41 °F
Dew Point 17 °F
Humidity 38%
Rainfall 0.00 in
Snow Depth Not available.
7:02 AM 5:32 PM
New Moon, 0% visible
METAR KAEJ 081955Z AUTO 36022G28KT 10SM CLR 07/M08 A3040 RMK AO2 T00701078
Pressure 30.40 in
Visibility 10.0 miles
Clouds Clear
Windchill 41 °F
Dew Point 17 °F
Humidity 38%
Rainfall 0.00 in
Snow Depth Not available.
7:02 AM 5:32 PM
New Moon, 0% visible
METAR KAEJ 081955Z AUTO 36022G28KT 10SM CLR 07/M08 A3040 RMK AO2 T00701078

10-Day Weather Forecast

Almanac

Astronomy

Feb. 08, 2016 Rise Set
Actual Time
Civil Twilight
Nautical Twilight
Astronomical Twilight
Moon
Length of Visible Light
Length of Day
Tomorrow will be .
, % of the Moon is Illuminated

Today's Extremes

State Highs State Lows

Community

WunderPhotos

Upload Photos

1,891,499 photos uploaded!

WunderBlog® & News

Nearby

Air Quality

  Air Quality AQ Index Pollutant
Not available.

Snow Depth

Station Depth Elevation

Earthquake Activity

City Distance Mag. Time & Date
Minimum magnitude displayed is 2.5.

Coastal Water Temperatures

Place Temperature

Stations

Nearby Weather Stations

Station Location Temp. Windchill Dew Point Humidity Wind Precip. Elev Updated Type
                   

Watches & Warnings

There are currently no watches in effect.